Hinnerup, Denmark
Current Conditions -  °F | °C
As of 8:20 PM on Friday 24 Oct 2014 (Local Time) from EKAH Reporting Station
Moderate Rain Moderate Rain  
Wind Chill: 54°   Ceiling: 2500
Heat Index: 54°   Visibility: 6mi
Dew Point: 48°   Wind: 12mph
Humidity: 82%   Direction: 180°S
Pressure: 29.97"   Gusts: 24mph
Location:  56.27°N, 10.06°E
Report Text: EKAH 241820Z AUTO 18010G21KT 130V240 9999NDV RA OVC025///12/09 Q1015
Loading
Personal Weather Stations






























Interactive Weather Map
Tropical Storm Tracking
New forecast layout! Learn more

10-Day Weather Forecast

Advertisements
Track Severe Weather on mobile